Time;durP1;ratioP1;P1;durP2;ratioP2;P2;SDS_P1;SDS_P2;PMS_P1;PMS_P2;Temp;Humidity;BMP_temperature;BMP_pressure;BME280_temperature;BME280_humidity;BME280_pressure;Samples;Min_cycle;Max_cycle;Signal;HPM_P1;HPM_P2
2022/05/20 00:01:06;;;;;;;1.50;1.40;;;;;;;6.94;71.62;97466.91;5113893;28;20028;-62
2022/05/20 00:03:34;;;;;;;1.40;1.30;;;;;;;6.95;71.54;97466.91;5113952;28;20058;-62
2022/05/20 00:06:00;;;;;;;2.10;1.20;;;;;;;6.93;71.52;97467.81;5114110;28;20051;-63
2022/05/20 00:08:27;;;;;;;1.45;1.35;;;;;;;6.88;71.54;97466.97;5113970;28;20440;-62
2022/05/20 00:10:53;;;;;;;1.90;1.77;;;;;;;6.89;71.94;97459.16;5113911;28;20038;-62
2022/05/20 00:13:26;;;;;;;1.60;1.50;;;;;;;6.89;71.69;97460.91;5113812;28;20031;-61
2022/05/20 00:15:53;;;;;;;1.77;1.48;;;;;;;6.90;71.53;97455.69;5113828;28;20023;-62
2022/05/20 00:18:19;;;;;;;3.33;1.30;;;;;;;6.93;71.43;97471.25;5113624;28;20553;-61
2022/05/20 00:20:45;;;;;;;1.60;1.33;;;;;;;6.90;71.91;97471.31;5113754;28;20023;-65
2022/05/20 00:23:11;;;;;;;1.60;1.50;;;;;;;6.93;71.56;97462.59;5113734;28;20070;-62
2022/05/20 00:25:46;;;;;;;3.25;1.40;;;;;;;7.01;71.31;97473.78;5113223;28;20039;-61
2022/05/20 00:28:22;;;;;;;1.40;1.30;;;;;;;7.03;71.23;97466.84;5113306;28;20048;-64
2022/05/20 00:30:50;;;;;;;2.35;1.40;;;;;;;6.97;71.32;97473.81;5113641;27;20063;-65
2022/05/20 00:33:16;;;;;;;1.50;1.40;;;;;;;6.93;71.38;97468.66;5113582;28;20061;-63
2022/05/20 00:35:42;;;;;;;3.85;1.90;;;;;;;6.93;71.09;97481.66;5113535;28;20023;-62
2022/05/20 00:38:07;;;;;;;2.80;1.60;;;;;;;6.83;71.62;97475.66;5113469;28;20034;-63
2022/05/20 00:40:34;;;;;;;1.40;1.23;;;;;;;6.83;71.80;97473.06;5113561;28;20541;-63
2022/05/20 00:43:37;;;;;;;2.00;1.55;;;;;;;6.84;71.68;97476.53;5113431;28;20020;-61
2022/05/20 00:46:06;;;;;;;1.70;1.60;;;;;;;6.80;71.82;97472.22;5091592;28;20047;-62
2022/05/20 00:48:33;;;;;;;5.55;1.50;;;;;;;6.76;71.96;97470.53;5112237;28;20027;-63
2022/05/20 00:51:27;;;;;;;1.40;1.30;;;;;;;6.67;72.24;97476.66;5113431;28;20020;-63
2022/05/20 00:53:57;;;;;;;1.40;1.30;;;;;;;6.68;72.30;97480.97;5113441;28;20038;-64
2022/05/20 00:56:28;;;;;;;1.45;1.13;;;;;;;6.66;72.31;97475.81;5113340;28;20062;-62
2022/05/20 00:58:55;;;;;;;4.30;1.63;;;;;;;6.62;72.46;97481.88;5113329;28;20049;-62
2022/05/20 01:01:21;;;;;;;2.00;1.65;;;;;;;6.64;72.48;97477.56;5113454;28;20023;-64
2022/05/20 01:03:48;;;;;;;7.20;1.33;;;;;;;6.61;72.61;97482.78;5113454;28;20020;-64
2022/05/20 01:06:13;;;;;;;2.40;1.70;;;;;;;6.59;72.86;97478.47;5113237;28;20027;-64
2022/05/20 01:08:41;;;;;;;1.80;1.63;;;;;;;6.51;72.91;97483.72;5113301;28;20027;-63
2022/05/20 01:11:07;;;;;;;1.63;1.52;;;;;;;6.51;73.37;97482.00;5113416;28;20023;-64
2022/05/20 01:13:34;;;;;;;3.85;1.55;;;;;;;6.47;73.23;97475.06;5113156;28;20026;-64
2022/05/20 01:16:04;;;;;;;6.10;1.75;;;;;;;6.37;73.54;97478.59;5113124;28;20023;-62
2022/05/20 01:18:35;;;;;;;1.52;1.42;;;;;;;6.29;73.40;97470.88;5113233;28;20488;-62
2022/05/20 01:21:01;;;;;;;;;;;;;;;6.28;74.02;97474.31;5113564;28;20038;-64
2022/05/20 01:23:28;;;;;;;2.08;1.50;;;;;;;6.18;74.48;97476.94;5113221;28;19908;-64
2022/05/20 01:25:56;;;;;;;2.17;1.45;;;;;;;6.18;74.24;97473.50;5112964;28;20024;-64
2022/05/20 01:28:24;;;;;;;1.63;1.40;;;;;;;6.19;74.39;97480.44;5112793;28;20062;-64
2022/05/20 01:30:54;;;;;;;1.90;1.70;;;;;;;6.13;74.63;97470.06;5113112;28;20022;-61
2022/05/20 01:33:24;;;;;;;3.83;1.60;;;;;;;6.18;74.23;97471.75;5113087;28;20027;-62
2022/05/20 01:35:50;;;;;;;;;;;;;;;6.13;74.60;97472.66;5113589;28;20023;-62
2022/05/20 01:38:16;;;;;;;2.42;1.60;;;;;;;5.90;74.84;97471.03;5114257;28;19911;-64
2022/05/20 01:40:50;;;;;;;4.38;1.70;;;;;;;5.94;75.04;97470.13;5116757;28;20020;-64
2022/05/20 01:43:40;;;;;;;2.15;1.95;;;;;;;5.93;74.92;97468.41;5116750;28;20549;-64
2022/05/20 01:46:33;;;;;;;2.10;1.80;;;;;;;5.87;74.79;97460.66;5116618;28;20471;-63
2022/05/20 01:49:21;;;;;;;1.20;1.10;;;;;;;5.89;74.89;97461.47;5116536;28;20039;-63
2022/05/20 01:52:23;;;;;;;1.40;1.30;;;;;;;5.89;74.88;97458.88;5116608;28;20106;-63
2022/05/20 01:55:13;;;;;;;2.15;1.60;;;;;;;5.74;74.61;97463.28;5116583;28;20035;-64
2022/05/20 01:57:56;;;;;;;3.17;1.70;;;;;;;5.72;75.34;97461.56;5116562;28;20388;-63
2022/05/20 02:00:26;;;;;;;1.60;1.50;;;;;;;5.71;75.60;97460.69;5116407;28;20152;-64
2022/05/20 02:03:03;;;;;;;3.75;1.80;;;;;;;5.78;75.28;97466.75;5116386;28;20019;-63
2022/05/20 02:05:40;;;;;;;2.00;1.77;;;;;;;5.74;75.04;97465.88;5116287;28;20099;-64
2022/05/20 02:08:12;;;;;;;1.70;1.52;;;;;;;5.71;75.03;97463.28;5116306;28;20384;-63
2022/05/20 02:10:43;;;;;;;1.63;1.52;;;;;;;5.71;75.07;97465.00;5116140;28;20469;-64
2022/05/20 02:13:11;;;;;;;;;;;;;;;5.74;75.85;97462.41;5116559;28;20023;-63
2022/05/20 02:15:47;;;;;;;1.45;1.35;;;;;;;5.71;75.37;97463.28;5115948;28;19912;-61
2022/05/20 02:18:31;;;;;;;4.38;1.67;;;;;;;5.71;75.48;97468.47;5116146;28;20030;-63
2022/05/20 02:21:04;;;;;;;1.77;1.50;;;;;;;5.71;75.51;97467.63;5114790;28;20106;-62
2022/05/20 02:23:35;;;;;;;1.63;1.52;;;;;;;5.65;75.32;97461.59;5115852;28;20027;-63
2022/05/20 02:26:04;;;;;;;2.03;1.35;;;;;;;5.71;74.96;97465.00;5115969;28;20028;-63
2022/05/20 02:28:36;;;;;;;2.03;1.40;;;;;;;5.69;75.24;97467.66;5115500;28;20104;-64
2022/05/20 02:31:04;;;;;;;2.03;1.60;;;;;;;5.67;75.37;97466.78;5115748;28;20028;-63
2022/05/20 02:33:31;;;;;;;1.58;1.42;;;;;;;5.64;75.10;97474.56;5115679;28;20542;-63
2022/05/20 02:36:05;;;;;;;2.20;1.70;;;;;;;5.67;75.60;97469.38;5115659;27;20099;-64
2022/05/20 02:38:30;;;;;;;3.42;1.50;;;;;;;5.57;75.86;97466.81;5115587;28;20477;-62
2022/05/20 02:40:56;;;;;;;1.52;1.42;;;;;;;5.57;75.86;97466.81;5115514;28;20034;-62
2022/05/20 02:43:22;;;;;;;2.00;1.70;;;;;;;5.48;76.08;97468.56;5115451;28;20020;-62
2022/05/20 02:45:49;;;;;;;3.00;1.92;;;;;;;5.50;76.04;97464.22;5115454;28;20094;-63
2022/05/20 02:48:18;;;;;;;2.08;1.70;;;;;;;5.56;76.01;97472.88;5115403;28;20027;-61
2022/05/20 02:50:44;;;;;;;2.03;1.48;;;;;;;5.57;75.63;97469.41;5115292;28;20020;-62
2022/05/20 02:53:11;;;;;;;2.10;1.70;;;;;;;5.61;75.47;97470.25;5115263;28;20023;-63
2022/05/20 02:55:37;;;;;;;7.55;1.85;;;;;;;5.53;75.79;97472.88;5115212;28;20020;-63
2022/05/20 02:58:03;;;;;;;1.88;1.50;;;;;;;5.55;76.17;97472.88;5115237;28;20099;-64
2022/05/20 03:05:58;;;;;;;1.60;1.42;;;;;;;5.74;75.58;97480.59;5115356;28;20022;-64
2022/05/20 03:08:24;;;;;;;7.20;1.77;;;;;;;5.72;75.45;97478.00;5114963;28;20035;-62
2022/05/20 03:10:50;;;;;;;2.28;1.80;;;;;;;5.74;75.51;97478.88;5115156;28;20448;-61
2022/05/20 03:13:16;;;;;;;7.20;1.80;;;;;;;5.74;75.68;97485.78;5115010;28;20461;-61
2022/05/20 03:15:42;;;;;;;7.32;1.70;;;;;;;5.76;75.38;97479.72;5114903;28;20477;-61
2022/05/20 03:18:10;;;;;;;1.80;1.70;;;;;;;5.75;75.40;97482.34;5114827;28;20016;-61
2022/05/20 03:20:38;;;;;;;1.98;1.77;;;;;;;5.77;75.66;97478.84;5114678;28;20446;-64
2022/05/20 03:23:05;;;;;;;3.38;1.50;;;;;;;5.78;75.94;97479.72;5114792;28;20019;-64
2022/05/20 03:25:31;;;;;;;3.85;1.40;;;;;;;5.79;75.88;97479.72;5114759;28;20468;-64
2022/05/20 03:27:58;;;;;;;3.30;1.40;;;;;;;5.82;76.08;97476.25;5114380;28;20561;-63
2022/05/20 03:30:24;;;;;;;1.85;1.40;;;;;;;5.80;76.07;97476.25;5114593;28;20028;-62
2022/05/20 03:32:50;;;;;;;3.60;1.90;;;;;;;5.85;76.06;97477.97;5114596;28;20382;-62
2022/05/20 03:35:17;;;;;;;2.28;2.03;;;;;;;5.93;76.48;97484.00;5114465;28;20465;-62
2022/05/20 03:37:42;;;;;;;4.38;1.45;;;;;;;6.05;76.70;97481.34;5114412;28;20111;-63
2022/05/20 03:40:09;;;;;;;6.07;1.65;;;;;;;6.29;76.30;97479.50;5114309;27;20103;-64
2022/05/20 03:42:34;;;;;;;1.92;1.30;;;;;;;6.63;75.14;97481.03;5114381;28;20023;-64
2022/05/20 03:45:00;;;;;;;3.30;1.25;;;;;;;7.05;74.39;97479.84;5114325;28;20035;-64
2022/05/20 03:47:26;;;;;;;0.98;0.98;;;;;;;7.58;72.54;97479.31;5114302;28;20522;-63
2022/05/20 03:49:52;;;;;;;1.23;1.15;;;;;;;8.15;70.27;97482.97;5114390;28;20027;-63
2022/05/20 03:52:18;;;;;;;1.45;1.10;;;;;;;8.75;69.00;97488.25;5114188;28;20130;-63
2022/05/20 03:54:46;;;;;;;3.50;1.08;;;;;;;9.31;66.61;97484.72;5114089;28;20057;-64
2022/05/20 03:57:11;;;;;;;1.13;1.02;;;;;;;9.78;64.73;97491.69;5114067;28;20114;-62
2022/05/20 03:59:37;;;;;;;1.40;1.30;;;;;;;10.34;63.80;97493.16;5113918;28;20102;-63
2022/05/20 04:02:09;;;;;;;1.38;1.10;;;;;;;10.79;61.41;97493.06;5113364;28;20030;-61
2022/05/20 04:04:55;;;;;;;1.20;1.10;;;;;;;11.28;61.09;97485.75;5114023;28;20026;-63
2022/05/20 04:07:26;;;;;;;2.38;1.13;;;;;;;11.71;58.91;97494.22;5113759;28;20035;-64
2022/05/20 04:09:53;;;;;;;1.63;1.10;;;;;;;12.17;57.81;97493.03;5113999;28;20031;-64
2022/05/20 04:12:26;;;;;;;3.53;1.38;;;;;;;12.63;57.66;97491.63;5113862;28;20039;-63
2022/05/20 04:14:53;;;;;;;3.60;1.10;;;;;;;13.11;56.51;97501.50;5112690;28;20023;-64
2022/05/20 04:17:19;;;;;;;3.40;1.20;;;;;;;13.60;54.74;97487.63;5113779;28;20047;-62
2022/05/20 04:19:45;;;;;;;1.33;1.23;;;;;;;14.06;53.23;97487.75;5113519;28;20136;-64
2022/05/20 04:22:13;;;;;;;1.20;1.10;;;;;;;14.48;52.93;97495.84;5113777;28;20024;-62
2022/05/20 04:24:39;;;;;;;4.45;1.05;;;;;;;14.86;52.65;97497.91;5113701;28;20039;-63
2022/05/20 04:27:05;;;;;;;1.25;1.15;;;;;;;15.28;52.13;97497.09;5113557;28;20104;-61
2022/05/20 04:29:31;;;;;;;3.60;1.10;;;;;;;15.61;50.49;97493.06;5113476;28;20382;-61
2022/05/20 04:31:59;;;;;;;3.78;1.20;;;;;;;16.01;50.25;97501.03;5113691;28;20097;-62
2022/05/20 04:34:25;;;;;;;1.52;1.42;;;;;;;16.33;48.93;97495.22;5113566;28;20081;-63
2022/05/20 04:36:51;;;;;;;3.40;1.30;;;;;;;16.61;49.54;97499.19;5113543;28;20080;-61
2022/05/20 04:39:17;;;;;;;1.90;1.17;;;;;;;16.96;48.17;97500.22;5112245;28;20028;-60
2022/05/20 04:47:27;;;;;;;4.82;1.10;;;;;;;18.01;46.66;97501.16;5113800;28;20515;-60
2022/05/20 04:49:53;;;;;;;1.45;1.35;;;;;;;18.39;46.27;97497.44;5113523;28;20023;-63
2022/05/20 04:52:20;;;;;;;1.38;1.00;;;;;;;18.68;45.62;97500.25;5113403;28;20386;-61
2022/05/20 04:54:49;;;;;;;1.02;0.98;;;;;;;18.96;44.81;97500.50;5113362;28;20472;-61
2022/05/20 04:57:24;;;;;;;1.88;1.27;;;;;;;19.19;44.02;97497.41;5113419;28;20024;-61
2022/05/20 04:59:51;;;;;;;1.23;1.05;;;;;;;19.39;44.96;97500.66;5113272;28;20028;-62
2022/05/20 05:02:17;;;;;;;1.50;1.17;;;;;;;19.57;44.65;97495.22;5113283;28;20024;-61
2022/05/20 05:04:43;;;;;;;1.75;1.00;;;;;;;19.77;46.77;97499.31;5113453;28;20093;-62
2022/05/20 05:07:12;;;;;;;1.58;1.10;;;;;;;20.00;45.08;97499.72;5113321;28;20358;-62
2022/05/20 05:09:42;;;;;;;2.17;1.13;;;;;;;20.15;44.92;97502.41;5113224;28;20015;-61
2022/05/20 05:12:09;;;;;;;1.20;1.10;;;;;;;20.43;46.25;97498.88;5114651;28;20030;-61
2022/05/20 05:14:37;;;;;;;0.80;0.80;;;;;;;20.65;41.49;97507.31;5117240;28;20020;-61
2022/05/20 05:17:06;;;;;;;1.08;0.98;;;;;;;20.72;41.82;97511.28;5117162;28;20103;-61
2022/05/20 05:19:33;;;;;;;3.45;1.17;;;;;;;20.91;43.21;97505.66;5117215;27;20025;-61
2022/05/20 05:22:00;;;;;;;1.40;0.95;;;;;;;21.14;39.50;97513.06;5117069;28;20102;-62
2022/05/20 05:24:26;;;;;;;5.45;1.35;;;;;;;21.38;38.96;97505.28;5117145;28;20103;-61
2022/05/20 05:26:51;;;;;;;1.90;1.00;;;;;;;21.53;39.08;97507.84;5116964;28;20111;-62
2022/05/20 05:29:17;;;;;;;2.38;1.20;;;;;;;21.61;41.08;97504.66;5116828;28;20503;-60
2022/05/20 05:31:42;;;;;;;1.90;0.98;;;;;;;21.68;38.83;97496.16;5116912;28;20164;-61
2022/05/20 05:34:10;;;;;;;1.98;0.90;;;;;;;21.82;39.43;97499.69;5116849;28;20034;-61
2022/05/20 05:36:36;;;;;;;2.92;1.00;;;;;;;22.16;36.90;97494.69;5116729;28;20035;-62
2022/05/20 05:39:02;;;;;;;1.90;1.00;;;;;;;22.45;37.12;97496.22;5116670;28;20030;-60
2022/05/20 05:41:30;;;;;;;1.40;1.20;;;;;;;22.84;36.09;97493.47;5116757;28;20023;-61
2022/05/20 05:44:01;;;;;;;1.45;1.10;;;;;;;23.14;34.85;97488.69;5115490;28;20076;-61
2022/05/20 05:46:27;;;;;;;1.58;0.90;;;;;;;23.37;33.58;97497.66;5116758;27;20031;-61
2022/05/20 05:48:52;;;;;;;5.32;1.30;;;;;;;23.57;33.90;97493.44;5116636;28;20028;-61
2022/05/20 05:51:19;;;;;;;1.70;1.05;;;;;;;23.85;32.94;97496.69;5116549;28;20034;-61
2022/05/20 05:53:45;;;;;;;1.65;1.00;;;;;;;24.12;32.13;97505.31;5116610;28;20101;-60
2022/05/20 05:56:11;;;;;;;5.72;1.10;;;;;;;24.28;33.21;97494.28;5116461;28;20089;-61
2022/05/20 05:58:40;;;;;;;5.10;1.20;;;;;;;24.52;34.27;97501.31;5116417;28;20129;-61
2022/05/20 06:01:07;;;;;;;3.67;1.00;;;;;;;24.76;34.12;97499.44;5116550;28;20453;-61
2022/05/20 06:03:33;;;;;;;3.15;1.10;;;;;;;24.71;31.19;97499.84;5116291;27;20024;-61
2022/05/20 06:05:59;;;;;;;2.67;1.00;;;;;;;24.50;32.00;97503.25;5116204;28;20108;-60
2022/05/20 06:08:25;;;;;;;1.50;0.93;;;;;;;24.63;31.62;97508.50;5116253;28;20023;-60
2022/05/20 06:10:52;;;;;;;1.85;0.90;;;;;;;24.76;31.95;97500.31;5116139;28;20389;-61
2022/05/20 06:13:26;;;;;;;3.60;1.10;;;;;;;24.99;30.66;97503.81;5116051;28;20015;-61
2022/05/20 06:15:55;;;;;;;1.65;1.00;;;;;;;25.08;30.79;97502.19;5116110;28;20038;-61
2022/05/20 06:18:22;;;;;;;2.70;1.20;;;;;;;25.21;30.67;97509.22;5115963;28;20397;-61
2022/05/20 06:20:48;;;;;;;1.23;1.00;;;;;;;25.31;30.67;97499.44;5115877;28;20465;-60
2022/05/20 06:23:15;;;;;;;2.95;1.10;;;;;;;25.51;30.87;97499.59;5115425;28;20028;-60
2022/05/20 06:25:41;;;;;;;4.78;0.80;;;;;;;25.82;30.05;97504.19;5115566;28;20466;-59
2022/05/20 06:28:12;;;;;;;0.80;0.80;;;;;;;25.98;30.46;97504.56;5114339;28;20481;-60
2022/05/20 06:30:38;;;;;;;5.68;1.25;;;;;;;25.96;28.80;97503.88;5115859;28;20038;-62
2022/05/20 06:33:04;;;;;;;4.85;0.82;;;;;;;26.06;30.10;97501.22;5115739;28;20431;-61
2022/05/20 06:41:00;;;;;;;3.50;0.88;;;;;;;26.41;29.30;97506.34;5115719;28;20149;-60
2022/05/20 06:43:27;;;;;;;2.55;1.10;;;;;;;26.31;29.19;97509.00;5115610;28;20035;-60
2022/05/20 06:45:56;;;;;;;5.75;1.23;;;;;;;26.20;28.55;97499.16;5115530;28;20030;-60
2022/05/20 06:48:23;;;;;;;2.08;1.20;;;;;;;26.35;27.70;97511.28;5115431;28;20024;-60
2022/05/20 06:50:48;;;;;;;1.00;0.90;;;;;;;26.55;28.65;97513.16;5115452;28;20030;-60
2022/05/20 06:53:15;;;;;;;2.92;1.02;;;;;;;26.57;28.29;97505.81;5115324;28;20388;-61
2022/05/20 06:55:42;;;;;;;1.48;1.00;;;;;;;26.76;28.12;97510.41;5115391;28;20030;-60
2022/05/20 06:58:08;;;;;;;1.08;1.00;;;;;;;26.69;26.46;97504.72;5115376;28;20012;-60
2022/05/20 07:00:34;;;;;;;2.83;1.00;;;;;;;26.84;26.77;97512.38;5115036;28;20036;-61
2022/05/20 07:03:00;;;;;;;7.43;1.08;;;;;;;26.93;27.54;97503.50;5115064;28;20020;-62
2022/05/20 07:05:27;;;;;;;3.20;0.90;;;;;;;27.14;27.50;97507.94;5115210;28;20020;-62
2022/05/20 07:07:53;;;;;;;4.22;1.20;;;;;;;27.32;27.91;97510.78;5115103;28;20036;-60
2022/05/20 07:10:20;;;;;;;1.38;1.08;;;;;;;27.45;24.86;97505.13;5115043;28;20023;-60
2022/05/20 07:12:46;;;;;;;3.90;1.08;;;;;;;27.62;24.93;97508.06;5114871;28;20043;-60
2022/05/20 07:15:12;;;;;;;7.50;1.00;;;;;;;27.41;24.13;97503.72;5114941;28;20102;-63
2022/05/20 07:17:38;;;;;;;2.55;0.90;;;;;;;26.91;24.99;97501.97;5114934;28;20541;-62
2022/05/20 07:20:07;;;;;;;2.60;1.33;;;;;;;26.87;24.34;97507.59;5114789;28;20031;-61
2022/05/20 07:22:33;;;;;;;1.23;0.90;;;;;;;27.00;26.06;97512.72;5114816;28;20047;-61
2022/05/20 07:24:59;;;;;;;3.08;0.90;;;;;;;27.15;25.02;97504.25;5114685;28;20031;-60
2022/05/20 07:27:25;;;;;;;3.70;1.20;;;;;;;27.23;24.60;97508.94;5114315;28;20549;-63
2022/05/20 07:29:51;;;;;;;1.17;0.90;;;;;;;27.49;23.90;97505.69;5114708;28;20023;-63
2022/05/20 07:32:17;;;;;;;1.73;0.98;;;;;;;27.69;23.90;97511.91;5114577;28;20483;-63
2022/05/20 07:34:42;;;;;;;1.92;1.05;;;;;;;27.77;24.29;97504.97;5114342;28;20031;-63
2022/05/20 07:37:09;;;;;;;3.95;0.98;;;;;;;27.86;24.41;97506.78;5113667;28;20030;-60
2022/05/20 07:39:35;;;;;;;5.07;1.00;;;;;;;27.84;22.34;97508.78;5114289;28;20057;-61
2022/05/20 07:42:00;;;;;;;2.63;0.90;;;;;;;27.81;23.64;97501.00;5114417;28;20393;-63
2022/05/20 07:44:27;;;;;;;2.00;1.08;;;;;;;27.85;21.48;97502.41;5114250;28;20019;-62
2022/05/20 07:46:53;;;;;;;1.95;0.90;;;;;;;27.40;20.91;97496.66;5114373;28;20024;-62
2022/05/20 07:49:20;;;;;;;2.60;1.10;;;;;;;26.99;22.43;97494.94;5114188;28;20039;-62
2022/05/20 07:51:50;;;;;;;2.53;1.02;;;;;;;26.37;22.07;97495.06;5114251;28;20397;-62
2022/05/20 07:54:22;;;;;;;3.00;0.98;;;;;;;26.09;23.89;97486.69;5114394;28;20020;-63
2022/05/20 07:56:55;;;;;;;1.65;1.30;;;;;;;26.32;24.65;97492.78;5114256;28;20111;-63
2022/05/20 07:59:30;;;;;;;5.85;1.30;;;;;;;26.68;28.08;97492.31;5114023;28;20042;-63
2022/05/20 08:01:57;;;;;;;1.77;0.90;;;;;;;26.84;24.82;97486.41;5114071;28;20522;-64
2022/05/20 08:04:55;;;;;;;1.30;1.00;;;;;;;26.69;25.42;97487.78;5114016;28;20032;-61
2022/05/20 08:07:28;;;;;;;1.52;1.00;;;;;;;26.73;26.10;97495.41;5113958;28;20031;-63
2022/05/20 08:09:55;;;;;;;6.22;1.20;;;;;;;26.79;24.19;97493.19;5113936;28;20028;-64
2022/05/20 08:12:22;;;;;;;3.70;0.98;;;;;;;27.04;25.00;97485.63;5113814;28;20035;-63
2022/05/20 08:14:49;;;;;;;2.95;1.02;;;;;;;27.41;26.49;97479.53;5113844;28;20037;-63
2022/05/20 08:17:17;;;;;;;2.33;1.20;;;;;;;27.82;26.34;97486.56;5113721;28;20019;-63
2022/05/20 08:19:44;;;;;;;2.05;0.93;;;;;;;27.95;24.90;97486.25;5113871;28;20080;-61
2022/05/20 08:22:09;;;;;;;7.05;1.10;;;;;;;27.96;25.16;97480.72;5113779;28;20027;-64
2022/05/20 08:24:35;;;;;;;1.55;1.00;;;;;;;27.73;25.99;97481.09;5113711;28;20023;-62
2022/05/20 08:27:01;;;;;;;7.43;1.10;;;;;;;27.84;26.15;97479.22;5113805;28;20028;-62
2022/05/20 08:29:27;;;;;;;6.57;1.00;;;;;;;27.97;26.62;97479.75;5112383;28;20092;-63
2022/05/20 08:31:53;;;;;;;2.05;1.10;;;;;;;28.13;26.95;97471.06;5113745;28;20019;-62
2022/05/20 08:34:18;;;;;;;4.93;1.00;;;;;;;28.18;26.01;97469.78;5113700;28;20488;-60
2022/05/20 08:36:44;;;;;;;3.42;1.42;;;;;;;28.22;26.33;97473.84;5113640;28;20376;-63
2022/05/20 08:39:12;;;;;;;1.70;0.90;;;;;;;28.12;25.99;97473.91;5113397;28;20034;-64
2022/05/20 08:41:41;;;;;;;9.30;1.10;;;;;;;27.95;26.89;97470.13;5113436;28;20039;-63
2022/05/20 08:44:12;;;;;;;5.22;1.15;;;;;;;27.82;26.13;97470.44;5113612;28;20103;-64
2022/05/20 08:46:38;;;;;;;;;;;;;;;27.94;28.21;97477.34;5114271;28;20023;-64
2022/05/20 08:49:10;;;;;;;2.67;0.90;;;;;;;27.96;26.12;97467.28;5117759;28;19916;-61
2022/05/20 08:51:39;;;;;;;1.35;0.95;;;;;;;27.80;26.73;97461.69;5117749;28;20077;-63
2022/05/20 08:54:05;;;;;;;3.75;0.80;;;;;;;27.85;25.46;97465.66;5117536;28;20034;-64
2022/05/20 08:56:31;;;;;;;2.35;0.98;;;;;;;27.80;25.46;97459.84;5117541;28;20443;-63
2022/05/20 08:59:03;;;;;;;1.35;0.88;;;;;;;27.77;23.93;97454.75;5117523;27;20107;-61
2022/05/20 09:01:35;;;;;;;1.52;1.10;;;;;;;27.33;23.51;97455.25;5117565;28;20035;-60
2022/05/20 09:04:02;;;;;;;1.80;1.15;;;;;;;27.14;27.57;97445.38;5117444;28;20020;-62
2022/05/20 09:06:30;;;;;;;4.75;1.27;;;;;;;27.23;25.89;97444.50;5117351;28;20023;-62
2022/05/20 09:09:14;;;;;;;1.65;1.10;;;;;;;27.39;27.12;97441.22;5117382;28;20035;-62
2022/05/20 09:11:42;;;;;;;0.90;0.80;;;;;;;27.49;28.85;97441.22;5117464;28;20545;-62
2022/05/20 09:17:24;;;;;;;2.78;1.30;;;;;;;27.59;28.53;97425.06;5117554;28;20038;-62
2022/05/20 09:19:55;;;;;;;3.50;0.90;;;;;;;27.60;27.76;97434.84;5117175;28;20191;-64
2022/05/20 09:22:31;;;;;;;;;;;;;;;27.71;26.39;97426.63;5117562;28;20015;-61
2022/05/20 09:24:58;;;;;;;1.95;1.30;;;;;;;27.57;25.14;97435.13;5117101;27;20384;-61
2022/05/20 09:27:39;;;;;;;1.83;1.17;;;;;;;27.46;20.94;97423.56;5115698;28;20034;-60
2022/05/20 09:30:14;;;;;;;1.25;0.93;;;;;;;26.87;23.28;97426.25;5116988;28;20024;-62
2022/05/20 09:33:10;;;;;;;3.55;1.00;;;;;;;26.73;24.46;97424.84;5116967;28;20031;-60
2022/05/20 09:35:36;;;;;;;1.88;1.30;;;;;;;26.69;23.08;97418.03;5116852;28;20110;-60
2022/05/20 09:38:25;;;;;;;1.85;1.10;;;;;;;26.65;22.57;97414.78;5116737;28;20019;-62
2022/05/20 09:40:51;;;;;;;2.00;1.10;;;;;;;26.68;21.95;97409.16;5116691;28;20457;-62
2022/05/20 09:43:28;;;;;;;4.60;1.27;;;;;;;26.50;22.61;97406.31;5116675;28;20028;-63
2022/05/20 09:45:56;;;;;;;2.30;1.02;;;;;;;26.29;24.94;97412.59;5116704;28;20055;-63
2022/05/20 09:48:32;;;;;;;1.52;1.00;;;;;;;26.38;24.24;97408.25;5116616;27;20453;-60
2022/05/20 09:51:05;;;;;;;5.45;0.93;;;;;;;26.67;25.76;97404.75;5116717;28;20028;-63
2022/05/20 09:53:39;;;;;;;3.35;1.00;;;;;;;26.94;24.07;97397.03;5116557;28;20031;-63
2022/05/20 09:56:29;;;;;;;4.03;1.17;;;;;;;27.07;22.82;97397.63;5116639;28;20093;-61
2022/05/20 09:59:48;;;;;;;2.75;1.27;;;;;;;26.85;22.87;97401.41;5115418;28;20030;-60
2022/05/20 10:02:33;;;;;;;2.60;1.10;;;;;;;26.67;23.11;97398.56;5114282;28;20055;-61
2022/05/20 10:05:25;;;;;;;4.57;1.23;;;;;;;26.57;23.61;97398.53;5116387;28;20031;-63
2022/05/20 10:08:10;;;;;;;2.47;1.25;;;;;;;26.63;22.72;97397.97;5116196;28;20492;-61
2022/05/20 10:10:45;;;;;;;4.45;0.98;;;;;;;26.59;21.50;97393.88;5116046;28;20118;-62
2022/05/20 10:13:46;;;;;;;1.00;0.90;;;;;;;26.83;23.39;97381.91;5116205;28;20036;-63
2022/05/20 10:16:22;;;;;;;5.97;1.35;;;;;;;26.94;24.05;97381.75;5099740;28;20061;-61
2022/05/20 10:19:11;;;;;;;7.05;1.20;;;;;;;26.87;23.69;97380.63;5115933;28;20084;-63
2022/05/20 10:21:48;;;;;;;6.43;0.90;;;;;;;26.97;23.80;97378.78;5115905;28;20480;-63
2022/05/20 10:24:38;;;;;;;1.48;1.02;;;;;;;26.80;21.63;97376.81;5115932;28;20036;-62
2022/05/20 10:27:16;;;;;;;2.05;1.20;;;;;;;26.46;24.28;97378.06;5115842;28;20047;-63
2022/05/20 10:33:01;;;;;;;2.95;1.00;;;;;;;26.36;21.92;97368.16;5116146;28;20130;-61
2022/05/20 10:36:01;;;;;;;1.42;1.20;;;;;;;26.28;21.90;97361.78;5115845;28;20058;-63
2022/05/20 10:38:45;;;;;;;7.03;1.00;;;;;;;26.46;23.48;97365.50;5115689;28;20388;-61
2022/05/20 10:41:41;;;;;;;5.40;1.30;;;;;;;26.28;23.69;97357.28;5115680;28;20032;-64
2022/05/20 10:50:16;;;;;;;0.90;0.90;;;;;;;26.33;25.91;97360.41;5115513;28;20062;-62
2022/05/20 10:52:42;;;;;;;1.58;1.10;;;;;;;26.23;22.97;97355.00;5115466;28;20388;-63
2022/05/20 10:55:30;;;;;;;1.70;1.02;;;;;;;26.22;22.96;97341.72;5115333;28;20031;-63
2022/05/20 10:58:17;;;;;;;5.35;1.20;;;;;;;26.00;23.96;97340.97;5115267;28;20080;-62
2022/05/20 11:00:50;;;;;;;1.85;0.90;;;;;;;26.04;24.01;97346.91;5115145;28;20424;-62
2022/05/20 11:04:03;;;;;;;2.97;1.30;;;;;;;26.14;22.52;97341.56;5115204;28;20028;-63
2022/05/20 11:06:56;;;;;;;1.83;1.00;;;;;;;26.11;22.38;97331.97;5115210;28;20039;-63
2022/05/20 11:09:34;;;;;;;1.60;1.02;;;;;;;26.23;24.18;97327.34;5114827;28;20384;-63
2022/05/20 11:12:05;;;;;;;2.03;0.90;;;;;;;26.31;23.94;97319.47;5114986;28;20030;-62
2022/05/20 11:14:46;;;;;;;2.20;1.23;;;;;;;26.46;24.37;97316.38;5114885;28;20488;-61
2022/05/20 11:17:33;;;;;;;;;;;;;;;26.52;22.64;97309.59;5115366;28;20023;-61
2022/05/20 11:20:25;;;;;;;2.78;1.00;;;;;;;26.26;23.22;97316.34;5114703;28;19911;-64
2022/05/20 11:22:57;;;;;;;4.70;1.10;;;;;;;26.32;24.15;97305.09;5114864;28;20042;-60
2022/05/20 11:25:43;;;;;;;3.17;1.10;;;;;;;26.31;23.82;97299.88;5114747;28;20505;-62
2022/05/20 11:28:21;;;;;;;1.05;0.90;;;;;;;26.25;22.12;97299.38;5114330;28;20560;-60
2022/05/20 11:30:55;;;;;;;2.70;1.48;;;;;;;26.22;23.79;97290.81;5114716;28;20032;-62
2022/05/20 11:33:56;;;;;;;2.83;1.33;;;;;;;26.02;22.09;97292.59;5114566;28;20115;-63
2022/05/20 11:36:49;;;;;;;1.38;0.90;;;;;;;25.90;24.31;97302.56;5114525;28;20111;-60
2022/05/20 11:39:26;;;;;;;1.88;1.25;;;;;;;25.85;23.38;97295.78;5114440;28;20058;-63
2022/05/20 11:42:11;;;;;;;2.53;0.95;;;;;;;25.91;22.97;97291.72;5114434;28;20039;-61
2022/05/20 11:44:55;;;;;;;5.40;0.98;;;;;;;25.94;24.61;97290.59;5114400;28;20050;-63
2022/05/20 11:47:54;;;;;;;2.47;1.08;;;;;;;25.65;24.46;97283.34;5113181;28;20024;-63
2022/05/20 11:50:41;;;;;;;6.18;1.52;;;;;;;25.71;25.47;97283.63;5114351;28;20042;-61
2022/05/20 11:53:26;;;;;;;3.97;1.30;;;;;;;25.55;24.69;97286.78;5114489;28;20098;-62
2022/05/20 11:56:14;;;;;;;2.28;1.00;;;;;;;25.74;24.20;97278.00;5114269;28;20023;-62
2022/05/20 11:58:46;;;;;;;3.85;1.00;;;;;;;25.73;23.95;97279.00;5114122;28;20035;-62
2022/05/20 12:01:12;;;;;;;1.33;0.95;;;;;;;25.59;23.60;97282.03;5114018;28;20026;-63
2022/05/20 12:06:27;;;;;;;1.95;0.95;;;;;;;25.94;25.34;97264.66;5114429;28;20251;-62
2022/05/20 12:08:56;;;;;;;2.53;0.90;;;;;;;26.02;23.42;97257.75;5113971;28;20045;-60
2022/05/20 12:11:26;;;;;;;2.35;1.30;;;;;;;25.81;23.99;97256.88;5113897;28;20023;-61
2022/05/20 12:14:19;;;;;;;2.00;0.95;;;;;;;25.83;24.30;97260.25;5113981;28;20106;-62
2022/05/20 12:17:04;;;;;;;5.60;1.20;;;;;;;25.76;24.53;97250.25;5113900;28;20047;-63
2022/05/20 12:25:39;;;;;;;2.58;1.00;;;;;;;26.21;24.79;97246.19;5114135;28;20074;-62
2022/05/20 12:28:23;;;;;;;1.45;0.80;;;;;;;26.17;23.95;97234.91;5113376;28;20065;-61
2022/05/20 12:31:20;;;;;;;1.33;0.98;;;;;;;26.18;23.39;97230.38;5113625;28;20032;-61
2022/05/20 12:33:51;;;;;;;3.58;1.20;;;;;;;26.23;24.08;97239.72;5113666;28;20449;-60
2022/05/20 12:36:20;;;;;;;3.65;1.00;;;;;;;26.14;23.62;97232.53;5112432;28;20388;-61